Time;durP1;ratioP1;P1;durP2;ratioP2;P2;SDS_P1;SDS_P2;PMS_P1;PMS_P2;Temp;Humidity;BMP_temperature;BMP_pressure;BME280_temperature;BME280_humidity;BME280_pressure;Samples;Min_cycle;Max_cycle;Signal;HPM_P1;HPM_P2
2022/09/20 00:00:40;;;;;;;3.85;1.55;;;12.10;99.90;;;;;;5010240;28;20042;-67
2022/09/20 00:03:07;;;;;;;2.05;1.48;;;12.10;99.90;;;;;;5003271;28;20061;-66
2022/09/20 00:05:37;;;;;;;5.53;1.60;;;12.10;99.90;;;;;;4997439;28;20026;-67
2022/09/20 00:08:05;;;;;;;4.68;1.55;;;12.10;99.90;;;;;;4998235;28;20049;-66
2022/09/20 00:10:37;;;;;;;3.28;1.40;;;12.10;99.90;;;;;;5002649;28;20030;-67
2022/09/20 00:13:06;;;;;;;2.28;1.50;;;12.10;99.90;;;;;;4995561;28;20113;-68
2022/09/20 00:15:33;;;;;;;2.47;1.20;;;12.10;99.90;;;;;;4996254;28;20030;-67
2022/09/20 00:17:59;;;;;;;3.40;1.50;;;12.10;99.90;;;;;;4982888;28;20458;-67
2022/09/20 00:20:25;;;;;;;3.92;1.45;;;12.10;99.90;;;;;;5001015;28;20066;-67
2022/09/20 00:22:51;;;;;;;2.00;1.30;;;12.10;99.90;;;;;;4996292;28;20504;-67
2022/09/20 00:25:18;;;;;;;2.42;1.50;;;12.00;99.90;;;;;;4995163;28;20034;-68
2022/09/20 00:27:44;;;;;;;2.58;1.35;;;12.00;99.90;;;;;;4995135;28;20050;-68
2022/09/20 00:30:11;;;;;;;2.47;1.35;;;12.00;99.90;;;;;;4986402;28;20030;-68
2022/09/20 00:32:37;;;;;;;3.08;1.50;;;12.00;99.90;;;;;;4998923;28;20045;-68
2022/09/20 00:35:12;;;;;;;2.25;1.25;;;12.00;99.90;;;;;;5000691;28;20385;-67
2022/09/20 00:37:39;;;;;;;;;;;12.00;99.90;;;;;;4985903;28;20106;-68
2022/09/20 00:40:08;;;;;;;3.10;1.30;;;11.90;99.90;;;;;;4960997;28;20308;-67
2022/09/20 00:42:34;;;;;;;2.67;1.63;;;11.90;99.90;;;;;;4993513;28;20027;-67
2022/09/20 00:45:02;;;;;;;2.67;1.40;;;11.90;99.90;;;;;;4976226;28;20477;-67
2022/09/20 00:47:43;;;;;;;2.42;1.73;;;11.80;99.90;;;;;;4982307;28;20034;-67
2022/09/20 00:51:02;;;;;;;4.57;1.85;;;11.90;99.90;;;;;;4994401;28;20366;-67
2022/09/20 00:53:32;;;;;;;2.63;1.60;;;11.90;99.90;;;;;;4960616;28;20071;-67
2022/09/20 00:56:02;;;;;;;3.30;1.70;;;11.90;99.90;;;;;;4993753;28;20057;-67
2022/09/20 00:58:31;;;;;;;2.83;1.48;;;11.90;99.90;;;;;;4993526;28;20045;-68
2022/09/20 01:00:57;;;;;;;2.15;1.30;;;11.80;99.90;;;;;;4990629;28;20031;-67
2022/09/20 01:03:29;;;;;;;1.60;1.25;;;11.80;99.90;;;;;;4994191;28;20037;-67
2022/09/20 01:05:56;;;;;;;2.20;1.25;;;11.80;99.90;;;;;;4993828;28;20041;-67
2022/09/20 01:08:25;;;;;;;2.05;1.20;;;11.80;99.90;;;;;;4993228;28;20033;-67
2022/09/20 01:10:52;;;;;;;2.72;1.40;;;11.80;99.90;;;;;;4993640;28;20060;-67
2022/09/20 01:13:17;;;;;;;2.53;1.30;;;11.80;99.90;;;;;;4993261;28;20026;-68
2022/09/20 01:15:45;;;;;;;3.25;1.33;;;11.80;99.90;;;;;;4993182;28;20030;-68
2022/09/20 01:18:12;;;;;;;2.10;1.40;;;11.80;99.90;;;;;;4992415;28;20039;-67
2022/09/20 01:20:41;;;;;;;5.40;1.40;;;11.70;99.90;;;;;;4993615;28;20061;-67
2022/09/20 01:23:12;;;;;;;2.42;1.40;;;11.80;99.90;;;;;;4993065;28;20046;-68
2022/09/20 01:26:24;;;;;;;4.00;1.52;;;11.70;99.90;;;;;;4975085;28;20470;-68
2022/09/20 01:29:14;;;;;;;2.58;1.50;;;11.70;99.90;;;;;;4995410;28;20050;-68
2022/09/20 01:31:46;;;;;;;2.67;1.40;;;11.70;99.90;;;;;;4993206;28;20525;-68
2022/09/20 01:34:16;;;;;;;3.63;1.45;;;11.70;99.90;;;;;;4988077;28;20041;-67
2022/09/20 01:37:12;;;;;;;3.90;1.42;;;11.70;99.90;;;;;;4993352;28;20616;-68
2022/09/20 01:39:58;;;;;;;3.30;1.40;;;11.60;99.90;;;;;;4991951;28;20041;-68
2022/09/20 01:42:31;;;;;;;1.88;1.30;;;11.70;99.90;;;;;;4976124;28;20022;-67
2022/09/20 01:45:02;;;;;;;2.45;1.40;;;11.60;99.90;;;;;;4991781;28;20034;-66
2022/09/20 01:47:53;;;;;;;2.90;1.45;;;11.70;99.90;;;;;;4993592;28;20018;-66
2022/09/20 01:50:38;;;;;;;2.85;1.20;;;11.70;99.90;;;;;;4981834;28;20051;-66
2022/09/20 01:53:26;;;;;;;1.88;1.00;;;11.70;99.90;;;;;;4991760;28;20481;-67
2022/09/20 01:56:03;;;;;;;2.83;1.30;;;11.70;99.90;;;;;;4992245;28;20049;-66
2022/09/20 01:59:06;;;;;;;2.78;1.20;;;11.70;99.90;;;;;;4992597;28;20045;-67
2022/09/20 02:01:53;;;;;;;5.35;1.40;;;11.70;99.90;;;;;;4991062;28;20088;-67
2022/09/20 02:04:32;;;;;;;2.30;1.33;;;11.70;99.90;;;;;;4973596;28;20038;-67
2022/09/20 02:07:10;;;;;;;3.55;1.30;;;11.70;99.90;;;;;;4992709;28;20076;-67
2022/09/20 02:09:57;;;;;;;2.10;1.33;;;11.60;99.90;;;;;;4990656;28;20026;-67
2022/09/20 02:12:53;;;;;;;2.47;1.20;;;11.70;99.90;;;;;;4975357;28;20034;-67
2022/09/20 02:15:43;;;;;;;2.50;1.20;;;11.60;99.90;;;;;;4990359;28;20026;-67
2022/09/20 02:18:16;;;;;;;1.50;1.15;;;11.70;99.90;;;;;;4993032;28;20042;-67
2022/09/20 02:20:41;;;;;;;3.83;1.35;;;11.70;99.90;;;;;;4993535;28;20034;-67
2022/09/20 02:23:18;;;;;;;1.80;1.13;;;11.70;99.90;;;;;;4994739;28;20030;-67
2022/09/20 02:26:05;;;;;;;1.60;1.10;;;11.60;99.90;;;;;;4990793;28;20037;-67
2022/09/20 02:28:48;;;;;;;2.50;1.20;;;11.60;99.90;;;;;;4992122;28;20042;-66
2022/09/20 02:31:48;;;;;;;3.58;1.40;;;11.60;99.90;;;;;;4994828;28;20076;-67
2022/09/20 02:34:56;;;;;;;2.05;1.30;;;11.60;99.90;;;;;;4990376;28;20026;-66
2022/09/20 02:37:40;;;;;;;1.40;1.00;;;11.70;99.90;;;;;;4965440;28;20088;-67
2022/09/20 02:40:25;;;;;;;2.53;1.23;;;11.60;99.90;;;;;;4990464;28;20037;-67
2022/09/20 02:42:53;;;;;;;1.57;1.20;;;11.60;99.90;;;;;;4992239;28;20042;-67
2022/09/20 02:45:55;;;;;;;2.08;1.30;;;11.70;99.90;;;;;;4990654;28;20277;-67
2022/09/20 02:48:33;;;;;;;2.40;1.25;;;11.60;99.90;;;;;;4987071;28;20042;-67
2022/09/20 02:51:21;;;;;;;1.45;1.20;;;11.70;99.90;;;;;;4991926;28;20105;-67
2022/09/20 02:54:12;;;;;;;4.25;1.23;;;11.60;99.90;;;;;;4973098;28;20041;-66
2022/09/20 02:56:54;;;;;;;4.57;1.20;;;11.70;99.90;;;;;;4991466;28;20042;-68
2022/09/20 02:59:28;;;;;;;1.70;0.93;;;11.70;99.90;;;;;;4991720;28;20042;-67
2022/09/20 03:02:25;;;;;;;1.90;1.00;;;11.80;99.90;;;;;;4991135;28;20026;-68
2022/09/20 03:05:15;;;;;;;2.63;1.30;;;11.80;99.90;;;;;;4985889;28;20041;-67
2022/09/20 03:08:10;;;;;;;4.15;1.05;;;11.80;99.90;;;;;;4966908;28;20037;-68
2022/09/20 03:10:53;;;;;;;2.45;1.30;;;11.80;99.90;;;;;;4984195;28;20117;-68
2022/09/20 03:13:54;;;;;;;2.33;1.20;;;11.80;99.90;;;;;;4991992;28;20093;-68
2022/09/20 03:16:38;;;;;;;2.22;1.30;;;11.70;99.90;;;;;;4992601;28;20031;-68
2022/09/20 03:19:32;;;;;;;2.10;0.90;;;11.70;99.90;;;;;;4995720;28;20026;-67
2022/09/20 03:22:17;;;;;;;2.88;1.25;;;11.70;99.90;;;;;;4995133;28;20113;-68
2022/09/20 03:25:05;;;;;;;1.70;1.30;;;11.80;99.90;;;;;;4983861;28;20034;-67
2022/09/20 03:28:20;;;;;;;3.15;1.23;;;11.70;99.90;;;;;;4995375;28;20193;-67
2022/09/20 03:31:03;;;;;;;6.38;1.23;;;11.70;99.90;;;;;;4991935;28;20037;-68
2022/09/20 03:34:07;;;;;;;1.92;1.30;;;11.70;99.90;;;;;;4995555;28;20678;-68
2022/09/20 03:36:51;;;;;;;4.22;1.20;;;11.70;99.90;;;;;;4994953;28;20070;-67
2022/09/20 03:39:36;;;;;;;2.85;1.13;;;11.70;99.90;;;;;;4994976;28;20542;-68
2022/09/20 03:42:24;;;;;;;1.98;1.08;;;11.70;99.90;;;;;;4977100;28;20038;-67
2022/09/20 03:45:01;;;;;;;3.15;1.38;;;11.70;99.90;;;;;;4993214;28;20018;-67
2022/09/20 03:47:45;;;;;;;3.78;1.30;;;11.70;99.90;;;;;;4995619;28;20085;-67
2022/09/20 03:50:30;;;;;;;2.97;1.23;;;11.80;99.90;;;;;;4968358;28;20072;-67
2022/09/20 03:53:21;;;;;;;2.03;1.30;;;11.80;99.90;;;;;;4994986;28;20077;-68
2022/09/20 03:56:09;;;;;;;3.45;1.40;;;11.80;99.90;;;;;;4991403;28;20034;-67
2022/09/20 03:58:49;;;;;;;2.03;1.38;;;11.80;99.90;;;;;;4994191;28;20038;-68
2022/09/20 04:01:39;;;;;;;2.80;1.33;;;11.90;99.90;;;;;;4979659;28;20027;-68
2022/09/20 04:04:39;;;;;;;3.17;1.33;;;11.90;99.90;;;;;;4993171;28;20030;-67
2022/09/20 04:07:15;;;;;;;1.85;1.25;;;11.90;99.90;;;;;;4977464;28;20039;-67
2022/09/20 04:09:56;;;;;;;2.17;1.20;;;12.00;99.90;;;;;;4994035;28;20034;-67
2022/09/20 04:12:26;;;;;;;2.80;1.48;;;12.00;99.90;;;;;;4994917;28;20018;-67
2022/09/20 04:15:12;;;;;;;1.60;1.20;;;12.00;99.90;;;;;;4993158;28;20030;-67
2022/09/20 04:17:56;;;;;;;1.48;1.00;;;12.10;99.90;;;;;;4993973;28;20121;-67
2022/09/20 04:21:01;;;;;;;1.90;1.17;;;12.10;99.90;;;;;;4991427;28;20038;-68
2022/09/20 04:23:56;;;;;;;2.22;1.08;;;12.10;99.90;;;;;;4970789;28;20030;-67
2022/09/20 04:26:28;;;;;;;4.40;1.30;;;12.10;99.90;;;;;;4992130;28;20040;-67
2022/09/20 04:29:00;;;;;;;3.50;1.30;;;12.10;99.90;;;;;;4991543;28;20058;-67
2022/09/20 04:31:38;;;;;;;2.10;1.30;;;12.20;99.90;;;;;;4982719;28;20069;-67
2022/09/20 04:34:13;;;;;;;1.88;1.30;;;12.20;99.90;;;;;;4976521;28;20030;-67
2022/09/20 04:36:58;;;;;;;2.47;1.20;;;12.20;99.90;;;;;;4982159;28;20035;-67
2022/09/20 04:39:42;;;;;;;2.03;1.17;;;12.10;99.90;;;;;;4975525;28;20037;-67
2022/09/20 04:42:45;;;;;;;2.35;1.25;;;12.20;99.90;;;;;;4975864;28;20022;-67
2022/09/20 04:45:16;;;;;;;2.63;1.30;;;12.20;99.90;;;;;;4992782;28;20027;-68
2022/09/20 04:47:59;;;;;;;4.32;1.40;;;12.20;99.90;;;;;;4993365;28;20034;-68
2022/09/20 04:50:28;;;;;;;3.65;1.30;;;12.20;99.90;;;;;;4996861;28;20026;-67
2022/09/20 04:53:09;;;;;;;4.35;1.30;;;12.20;99.90;;;;;;4988541;28;20038;-67
2022/09/20 04:56:18;;;;;;;3.60;1.55;;;12.20;99.90;;;;;;4992571;28;20030;-67
2022/09/20 04:58:50;;;;;;;2.25;1.58;;;12.20;99.90;;;;;;4992451;28;20066;-66
2022/09/20 05:01:57;;;;;;;2.10;1.42;;;12.20;99.90;;;;;;4974555;28;20019;-68
2022/09/20 05:04:52;;;;;;;2.63;1.42;;;12.20;99.90;;;;;;4991311;28;20038;-68
2022/09/20 05:07:29;;;;;;;4.43;1.50;;;12.20;99.90;;;;;;4993866;28;20178;-68
2022/09/20 05:10:00;;;;;;;2.60;1.40;;;12.20;99.90;;;;;;4990870;28;20077;-69
2022/09/20 05:12:38;;;;;;;2.50;1.40;;;12.20;99.90;;;;;;4993183;28;20038;-66
2022/09/20 05:15:25;;;;;;;1.98;1.45;;;12.20;99.90;;;;;;4988089;28;20033;-67
2022/09/20 05:18:33;;;;;;;4.85;1.60;;;12.20;99.90;;;;;;4992923;28;20129;-67
2022/09/20 05:21:18;;;;;;;2.78;1.83;;;12.20;99.90;;;;;;4991632;28;20034;-66
2022/09/20 05:24:13;;;;;;;3.17;1.42;;;12.20;99.90;;;;;;4993821;28;20026;-66
2022/09/20 05:27:03;;;;;;;1.93;1.37;;;12.20;99.90;;;;;;4993645;28;20078;-66
2022/09/20 05:30:00;;;;;;;2.17;1.40;;;12.30;99.90;;;;;;4992252;28;20050;-66
2022/09/20 05:32:44;;;;;;;3.30;1.83;;;12.30;99.90;;;;;;4993124;28;20189;-66
2022/09/20 05:35:22;;;;;;;4.38;1.65;;;12.40;99.90;;;;;;4991841;28;20030;-66
2022/09/20 05:38:12;;;;;;;4.40;1.80;;;12.40;99.90;;;;;;4987983;28;20078;-69
2022/09/20 05:40:59;;;;;;;3.55;1.83;;;12.40;99.90;;;;;;4985197;28;20109;-69
2022/09/20 05:43:54;;;;;;;3.97;1.80;;;12.50;99.90;;;;;;4993059;28;20026;-70
2022/09/20 05:46:53;;;;;;;3.00;1.65;;;12.50;99.90;;;;;;4991900;28;20027;-69
2022/09/20 05:49:57;;;;;;;4.20;1.70;;;12.60;99.90;;;;;;4978270;28;20026;-69
2022/09/20 05:52:36;;;;;;;3.00;1.63;;;12.60;99.90;;;;;;4991212;28;20057;-68
2022/09/20 05:55:12;;;;;;;2.15;1.33;;;12.70;99.90;;;;;;4991372;28;20027;-70
2022/09/20 05:57:55;;;;;;;3.65;1.70;;;12.70;99.90;;;;;;4987057;28;20089;-70
2022/09/20 06:00:26;;;;;;;3.60;1.70;;;12.80;99.90;;;;;;4980992;28;20050;-71
2022/09/20 06:03:13;;;;;;;3.38;1.85;;;12.80;99.90;;;;;;4980177;28;20045;-71
2022/09/20 06:06:21;;;;;;;3.80;1.70;;;12.90;99.90;;;;;;4981281;28;20030;-71
2022/09/20 06:08:59;;;;;;;2.40;1.35;;;12.90;99.90;;;;;;4985216;28;20038;-71
2022/09/20 06:11:45;;;;;;;1.88;1.40;;;13.00;99.90;;;;;;4990699;28;20140;-71
2022/09/20 06:14:31;;;;;;;3.38;1.60;;;13.10;99.90;;;;;;4990000;28;20022;-71
2022/09/20 06:17:18;;;;;;;3.75;1.60;;;13.20;99.90;;;;;;4990487;28;20445;-71
2022/09/20 06:19:55;;;;;;;6.05;1.80;;;13.30;99.90;;;;;;4976385;28;20022;-71
2022/09/20 06:22:23;;;;;;;3.70;1.40;;;13.30;99.90;;;;;;4983628;28;20490;-71
2022/09/20 06:25:05;;;;;;;4.15;1.60;;;13.40;99.90;;;;;;4980285;28;20026;-71
2022/09/20 06:27:40;;;;;;;4.63;1.77;;;13.40;99.90;;;;;;4985526;28;20406;-71
2022/09/20 06:30:15;;;;;;;3.92;1.67;;;13.50;99.90;;;;;;4984367;28;20551;-71
2022/09/20 06:32:58;;;;;;;2.92;1.73;;;13.50;99.90;;;;;;4991615;28;20461;-71
2022/09/20 06:35:40;;;;;;;4.43;1.90;;;13.50;99.90;;;;;;4983681;28;20088;-70
2022/09/20 06:41:27;;;;;;;4.65;1.60;;;13.60;99.90;;;;;;4989186;28;20041;-71
2022/09/20 06:43:57;;;;;;;2.60;1.70;;;13.70;99.90;;;;;;4987219;28;20984;-71
2022/09/20 06:46:23;;;;;;;4.70;2.00;;;13.70;99.90;;;;;;4988770;28;20080;-70
2022/09/20 06:48:49;;;;;;;4.10;1.85;;;13.80;99.90;;;;;;4988621;28;20041;-70
2022/09/20 06:51:14;;;;;;;6.82;1.90;;;13.90;99.90;;;;;;4987525;28;20466;-71
2022/09/20 06:53:40;;;;;;;3.50;1.60;;;13.80;99.90;;;;;;4981466;28;20049;-70
2022/09/20 06:56:19;;;;;;;5.13;1.92;;;13.80;99.90;;;;;;4968168;28;20050;-70
2022/09/20 06:58:47;;;;;;;3.38;1.55;;;13.80;99.90;;;;;;4985214;28;20042;-73
2022/09/20 07:01:14;;;;;;;5.80;1.45;;;13.90;99.90;;;;;;4971021;28;20026;-70
2022/09/20 07:03:40;;;;;;;5.85;2.17;;;13.90;99.90;;;;;;4988328;28;20030;-70
2022/09/20 07:06:07;;;;;;;2.50;1.90;;;14.00;99.80;;;;;;4990169;28;20378;-70
2022/09/20 07:08:33;;;;;;;6.28;1.73;;;13.90;99.80;;;;;;4990884;28;20034;-70
2022/09/20 07:11:09;;;;;;;6.95;1.75;;;13.90;99.70;;;;;;4972424;28;20113;-71
2022/09/20 07:13:35;;;;;;;7.38;1.80;;;13.90;99.70;;;;;;4991238;28;20027;-71
2022/09/20 07:16:06;;;;;;;6.75;2.15;;;13.90;99.70;;;;;;4986154;28;20057;-70
2022/09/20 07:18:33;;;;;;;2.97;1.77;;;13.90;99.70;;;;;;4966354;28;20113;-71
2022/09/20 07:21:02;;;;;;;4.38;1.52;;;13.90;99.90;;;;;;4991468;28;20022;-71
2022/09/20 07:23:28;;;;;;;6.63;1.70;;;13.90;99.60;;;;;;4972770;28;20033;-71
2022/09/20 07:25:58;;;;;;;5.10;1.75;;;13.90;99.60;;;;;;4990933;28;20026;-71
2022/09/20 07:28:23;;;;;;;3.67;1.80;;;13.80;99.50;;;;;;4988980;28;20060;-71
2022/09/20 07:30:50;;;;;;;6.72;2.05;;;13.80;99.60;;;;;;4984800;28;22519;-71
2022/09/20 07:33:20;;;;;;;4.45;1.80;;;13.80;99.70;;;;;;4991610;28;20114;-71
2022/09/20 07:35:47;;;;;;;6.15;1.90;;;13.70;99.70;;;;;;4985413;28;20644;-71
2022/09/20 07:38:14;;;;;;;3.00;1.90;;;13.70;99.70;;;;;;4984865;28;20043;-71
2022/09/20 07:40:40;;;;;;;3.75;2.40;;;13.70;99.70;;;;;;4988234;28;20054;-71
2022/09/20 07:43:05;;;;;;;3.55;1.67;;;13.70;99.70;;;;;;4973059;28;20053;-72
2022/09/20 07:45:33;;;;;;;2.85;1.80;;;13.60;99.70;;;;;;4986855;28;20495;-70
2022/09/20 07:47:58;;;;;;;5.57;1.90;;;13.60;99.70;;;;;;4990251;28;20026;-71
2022/09/20 07:50:24;;;;;;;3.75;1.80;;;13.60;99.80;;;;;;4989146;28;20480;-71
2022/09/20 07:52:50;;;;;;;4.05;1.80;;;13.50;99.90;;;;;;4990226;28;20081;-71
2022/09/20 07:55:16;;;;;;;3.33;1.88;;;13.60;99.90;;;;;;4989452;28;20030;-70
2022/09/20 07:57:42;;;;;;;4.20;1.90;;;13.60;99.90;;;;;;4987185;28;20042;-70
2022/09/20 08:00:08;;;;;;;3.83;2.03;;;13.60;99.90;;;;;;4988669;28;20031;-70
2022/09/20 08:02:34;;;;;;;6.70;2.20;;;13.70;99.90;;;;;;4976031;28;20023;-71
2022/09/20 08:05:00;;;;;;;5.38;2.63;;;13.60;99.90;;;;;;4987993;28;20085;-70
2022/09/20 08:07:26;;;;;;;2.95;1.85;;;13.70;99.90;;;;;;4973347;28;20035;-70
2022/09/20 08:09:51;;;;;;;4.80;2.00;;;13.60;99.90;;;;;;4985242;28;20487;-71
2022/09/20 08:12:18;;;;;;;5.43;1.92;;;13.70;99.90;;;;;;4988980;28;20030;-71
2022/09/20 08:14:44;;;;;;;3.22;1.80;;;13.70;99.90;;;;;;4991745;28;20103;-70
2022/09/20 08:17:10;;;;;;;4.82;2.10;;;13.80;99.90;;;;;;4983637;28;20134;-71
2022/09/20 08:19:38;;;;;;;6.53;2.00;;;13.80;99.90;;;;;;4992901;28;20030;-70
2022/09/20 08:22:05;;;;;;;6.43;2.55;;;13.80;99.90;;;;;;4992958;28;20066;-70
2022/09/20 08:24:31;;;;;;;5.30;1.90;;;13.90;99.90;;;;;;4985949;28;20033;-71
2022/09/20 08:26:58;;;;;;;7.53;1.90;;;13.90;99.90;;;;;;4982964;28;20037;-70
2022/09/20 08:29:24;;;;;;;5.13;2.00;;;14.00;99.80;;;;;;4983644;28;20262;-70
2022/09/20 08:31:50;;;;;;;4.93;1.80;;;14.00;99.80;;;;;;4992357;28;20526;-70
2022/09/20 08:34:17;;;;;;;3.50;2.22;;;14.00;99.80;;;;;;4992680;28;20042;-71
2022/09/20 08:36:45;;;;;;;6.75;2.33;;;14.00;99.80;;;;;;4976563;28;20064;-71
2022/09/20 08:39:11;;;;;;;3.55;1.92;;;14.10;99.70;;;;;;4983938;28;20043;-71
2022/09/20 08:41:45;;;;;;;9.13;2.60;;;14.10;99.80;;;;;;4985701;28;20489;-71
2022/09/20 08:44:23;;;;;;;5.88;2.03;;;14.10;99.80;;;;;;4986426;28;20355;-71
2022/09/20 08:46:57;;;;;;;4.70;2.15;;;14.10;99.50;;;;;;4978564;28;20133;-71
2022/09/20 08:49:26;;;;;;;4.57;1.80;;;14.20;99.50;;;;;;4982160;28;20366;-70
2022/09/20 08:51:53;;;;;;;4.88;2.13;;;14.20;99.50;;;;;;4980248;28;20035;-70
2022/09/20 08:54:23;;;;;;;3.90;1.80;;;14.20;99.50;;;;;;4981168;28;20424;-69
2022/09/20 08:56:49;;;;;;;6.28;1.70;;;14.30;99.60;;;;;;4983523;28;20113;-70
2022/09/20 08:59:18;;;;;;;4.72;2.05;;;14.40;99.60;;;;;;4989480;28;20164;-71
2022/09/20 09:01:45;;;;;;;4.65;1.73;;;14.40;99.40;;;;;;4990770;28;20535;-70
2022/09/20 09:04:22;;;;;;;8.65;2.72;;;14.40;99.30;;;;;;4986619;28;20053;-70
2022/09/20 09:06:50;;;;;;;5.85;1.70;;;14.50;99.40;;;;;;4990276;28;20081;-70
2022/09/20 09:09:19;;;;;;;4.43;1.88;;;14.50;99.40;;;;;;4986377;28;20030;-69
2022/09/20 09:11:46;;;;;;;4.57;1.83;;;14.50;99.30;;;;;;4979474;28;20537;-70
2022/09/20 09:17:12;;;;;;;5.05;1.17;;;14.60;99.10;;;;;;4984089;28;20088;-70
2022/09/20 09:20:20;;;;;;;4.88;1.58;;;14.70;99.10;;;;;;4990073;28;20026;-70
2022/09/20 09:22:47;;;;;;;8.68;2.25;;;14.70;98.80;;;;;;4968474;28;20049;-72
2022/09/20 09:25:13;;;;;;;5.72;1.60;;;14.70;98.80;;;;;;4974667;28;20370;-71
2022/09/20 09:28:00;;;;;;;8.05;3.10;;;14.80;98.90;;;;;;4988713;28;20050;-65
2022/09/20 09:30:36;;;;;;;3.30;1.67;;;14.90;98.80;;;;;;4988893;28;20503;-73
2022/09/20 09:33:28;;;;;;;6.35;2.85;;;14.90;98.80;;;;;;4992593;28;20085;-72
2022/09/20 09:36:12;;;;;;;5.35;2.38;;;15.00;98.50;;;;;;4991760;28;20026;-71
2022/09/20 09:38:40;;;;;;;6.40;2.10;;;15.00;98.60;;;;;;4990277;28;20038;-72
2022/09/20 09:41:34;;;;;;;4.07;1.40;;;15.10;98.60;;;;;;4987329;28;20373;-72
2022/09/20 09:44:17;;;;;;;6.90;2.83;;;15.20;98.30;;;;;;4979674;28;20049;-72
2022/09/20 09:46:43;;;;;;;5.10;1.90;;;15.30;98.40;;;;;;4980984;28;20093;-71
2022/09/20 09:49:21;;;;;;;4.47;1.67;;;15.40;98.20;;;;;;4994495;28;20108;-72
2022/09/20 09:52:05;;;;;;;3.45;1.70;;;15.60;98.30;;;;;;4991071;28;20069;-73
2022/09/20 09:54:39;;;;;;;4.35;2.10;;;15.70;98.10;;;;;;4990956;28;20045;-73
2022/09/20 09:57:50;;;;;;;4.28;1.70;;;15.70;98.00;;;;;;4984038;28;20066;-74
2022/09/20 10:00:21;;;;;;;4.40;2.20;;;15.80;97.80;;;;;;4986329;28;20042;-73
2022/09/20 10:03:14;;;;;;;2.80;1.73;;;15.90;97.50;;;;;;4978709;28;20374;-73
2022/09/20 10:05:48;;;;;;;4.93;1.33;;;16.00;97.40;;;;;;4987336;28;20027;-73
2022/09/20 10:08:21;;;;;;;2.67;1.67;;;16.00;97.20;;;;;;4982963;28;20074;-73
2022/09/20 10:11:28;;;;;;;4.95;2.40;;;16.10;96.90;;;;;;4986103;28;20034;-72
2022/09/20 10:14:27;;;;;;;4.85;2.00;;;16.20;97.10;;;;;;4989950;28;20058;-73
2022/09/20 10:17:09;;;;;;;5.40;2.28;;;16.40;97.20;;;;;;4984780;28;20042;-72
2022/09/20 10:19:55;;;;;;;7.50;3.10;;;16.60;97.10;;;;;;4990302;28;20080;-72
2022/09/20 10:22:27;;;;;;;5.63;2.17;;;16.70;97.10;;;;;;4986747;28;20085;-73
2022/09/20 10:24:59;;;;;;;4.45;2.03;;;16.90;97.10;;;;;;4979183;28;20370;-73
2022/09/20 10:27:38;;;;;;;6.93;3.67;;;17.10;96.80;;;;;;4988918;28;20038;-73
2022/09/20 10:30:20;;;;;;;6.35;2.47;;;17.20;96.70;;;;;;4984664;28;20031;-72
2022/09/20 10:32:54;;;;;;;4.05;1.90;;;17.40;96.50;;;;;;4987589;28;20077;-72
2022/09/20 10:35:31;;;;;;;3.03;1.98;;;17.50;96.30;;;;;;4990883;28;20117;-71
2022/09/20 10:38:20;;;;;;;5.63;2.00;;;17.70;95.60;;;;;;4986965;28;20149;-71
2022/09/20 10:44:15;;;;;;;4.35;2.17;;;18.00;95.70;;;;;;4983102;28;20034;-70
2022/09/20 10:47:02;;;;;;;3.67;1.98;;;18.00;95.40;;;;;;4991306;28;20070;-72
2022/09/20 10:50:01;;;;;;;3.85;2.00;;;18.10;94.90;;;;;;4991258;28;20061;-72
2022/09/20 10:52:33;;;;;;;8.73;2.47;;;18.10;94.60;;;;;;4987634;28;20092;-71
2022/09/20 10:55:26;;;;;;;4.88;2.13;;;18.00;94.60;;;;;;4980942;28;20030;-71
2022/09/20 10:58:19;;;;;;;4.05;2.10;;;17.80;94.20;;;;;;4984695;28;20124;-72
2022/09/20 11:01:02;;;;;;;3.85;2.03;;;17.60;94.60;;;;;;4983508;28;20030;-71
2022/09/20 11:03:49;;;;;;;3.88;2.20;;;17.50;95.20;;;;;;4983032;28;20026;-71
2022/09/20 11:06:18;;;;;;;4.35;2.17;;;17.30;95.30;;;;;;4987807;28;20041;-71
2022/09/20 11:08:50;;;;;;;5.97;2.70;;;17.30;95.50;;;;;;4975383;28;20508;-71
2022/09/20 11:11:27;;;;;;;6.72;2.55;;;17.20;95.60;;;;;;4984630;28;20034;-71
2022/09/20 11:14:32;;;;;;;5.88;3.00;;;17.10;95.70;;;;;;4977153;28;20490;-72
2022/09/20 11:17:04;;;;;;;3.88;2.47;;;17.10;96.00;;;;;;4951926;28;20073;-70
2022/09/20 11:19:54;;;;;;;5.38;2.30;;;17.00;95.80;;;;;;4987120;28;20034;-71
2022/09/20 11:22:38;;;;;;;3.00;2.00;;;16.80;95.60;;;;;;4975374;28;20107;-72
2022/09/20 11:25:19;;;;;;;4.70;2.53;;;16.40;95.90;;;;;;4980520;28;20038;-70
2022/09/20 11:27:52;;;;;;;2.78;1.50;;;16.10;96.10;;;;;;4988381;28;20108;-70
2022/09/20 11:30:22;;;;;;;2.60;1.30;;;15.80;96.30;;;;;;4980193;28;20027;-70
2022/09/20 11:33:17;;;;;;;5.38;2.03;;;15.80;96.50;;;;;;4970585;28;20049;-70
2022/09/20 11:35:49;;;;;;;7.20;1.70;;;15.60;96.30;;;;;;4989705;28;20061;-70
2022/09/20 11:38:33;;;;;;;2.63;1.50;;;15.50;96.60;;;;;;4987536;28;20038;-69
2022/09/20 11:41:12;;;;;;;2.00;1.30;;;15.40;96.60;;;;;;4987528;28;20109;-70
2022/09/20 11:43:41;;;;;;;2.83;1.60;;;15.30;96.80;;;;;;4988268;28;20117;-68
2022/09/20 11:46:08;;;;;;;3.00;1.52;;;15.30;97.00;;;;;;4990104;28;20030;-70
2022/09/20 11:48:44;;;;;;;2.67;1.42;;;15.20;97.20;;;;;;4992378;28;20037;-69
2022/09/20 11:51:18;;;;;;;2.95;1.55;;;15.20;97.50;;;;;;4989930;28;20116;-69
2022/09/20 11:54:14;;;;;;;3.22;1.70;;;15.10;97.70;;;;;;4994427;28;20433;-70
2022/09/20 11:56:47;;;;;;;2.80;1.70;;;15.10;97.90;;;;;;4991488;28;20526;-69
2022/09/20 11:59:34;;;;;;;3.50;1.60;;;15.10;97.80;;;;;;4991383;28;20417;-70
2022/09/20 12:02:03;;;;;;;2.90;1.42;;;15.10;97.70;;;;;;4981971;28;20027;-70
2022/09/20 12:04:33;;;;;;;2.85;1.60;;;15.10;97.80;;;;;;4993239;28;20674;-69
2022/09/20 12:07:04;;;;;;;2.83;1.52;;;15.10;97.90;;;;;;4993637;28;20022;-70
2022/09/20 12:09:37;;;;;;;4.68;1.80;;;15.10;98.00;;;;;;4987078;28;20433;-70
2022/09/20 12:12:34;;;;;;;3.75;2.00;;;15.10;98.10;;;;;;4994513;28;20038;-70
2022/09/20 12:15:04;;;;;;;4.78;2.25;;;15.20;98.20;;;;;;4993639;28;20454;-70
2022/09/20 12:17:46;;;;;;;2.95;2.00;;;15.20;98.20;;;;;;4984766;28;20157;-70
2022/09/20 12:20:51;;;;;;;3.28;1.80;;;15.30;98.20;;;;;;4990850;28;20448;-71
2022/09/20 12:26:25;;;;;;;2.22;1.73;;;15.40;98.30;;;;;;4988334;28;20489;-69
2022/09/20 12:28:53;;;;;;;4.28;2.42;;;15.40;98.40;;;;;;4968265;28;20050;-68
2022/09/20 12:31:30;;;;;;;4.68;2.50;;;15.40;98.60;;;;;;4990252;28;20378;-69
2022/09/20 12:34:12;;;;;;;6.20;3.25;;;15.50;98.70;;;;;;4987745;28;20038;-68
2022/09/20 12:37:03;;;;;;;5.70;2.78;;;15.50;98.90;;;;;;4981526;28;20527;-69
2022/09/20 12:39:33;;;;;;;6.97;2.95;;;15.50;99.00;;;;;;4991679;28;20030;-69
2022/09/20 12:42:09;;;;;;;5.40;2.90;;;15.50;99.10;;;;;;4992638;28;20555;-69
2022/09/20 12:44:50;;;;;;;5.15;2.63;;;15.60;99.10;;;;;;4989118;28;20026;-70
2022/09/20 12:47:25;;;;;;;4.15;2.63;;;15.60;99.10;;;;;;4975128;28;20577;-69
2022/09/20 12:53:02;;;;;;;3.75;2.00;;;15.80;98.90;;;;;;4991409;28;20536;-70
2022/09/20 12:55:42;;;;;;;5.32;2.40;;;15.90;98.70;;;;;;4990793;28;20037;-70
2022/09/20 12:58:14;;;;;;;3.65;1.70;;;15.90;98.20;;;;;;4990058;28;20512;-70
2022/09/20 13:00:50;;;;;;;3.13;1.98;;;15.90;97.90;;;;;;4989509;28;20033;-70
2022/09/20 13:03:35;;;;;;;3.22;1.58;;;15.80;97.80;;;;;;4991534;28;20026;-69
2022/09/20 13:06:05;;;;;;;4.03;1.95;;;15.90;97.80;;;;;;4974002;28;20030;-70
2022/09/20 13:08:50;;;;;;;3.25;1.90;;;15.80;97.70;;;;;;4993209;28;20030;-70
2022/09/20 13:11:52;;;;;;;3.38;1.70;;;15.80;97.40;;;;;;4987140;28;20030;-69
2022/09/20 13:14:23;;;;;;;1.65;1.30;;;15.80;97.10;;;;;;4988226;28;20042;-69
2022/09/20 13:16:59;;;;;;;1.10;0.90;;;15.80;96.50;;;;;;4986517;28;20544;-70
2022/09/20 13:19:27;;;;;;;1.33;0.93;;;15.70;96.60;;;;;;4991238;28;20049;-69
2022/09/20 13:21:59;;;;;;;2.80;1.20;;;15.60;95.80;;;;;;4991159;28;20377;-70
2022/09/20 13:24:28;;;;;;;2.28;1.30;;;15.40;96.30;;;;;;4963663;28;20026;-69
2022/09/20 13:27:00;;;;;;;2.15;1.10;;;15.30;96.10;;;;;;4988472;28;20026;-69
2022/09/20 13:29:37;;;;;;;1.90;1.15;;;15.30;96.00;;;;;;4982728;28;20043;-69
2022/09/20 13:32:26;;;;;;;2.03;1.20;;;15.20;96.10;;;;;;4991253;28;20023;-70
2022/09/20 13:35:11;;;;;;;1.70;1.13;;;15.20;95.90;;;;;;4981457;28;20116;-70
2022/09/20 13:37:42;;;;;;;2.40;1.42;;;15.20;96.10;;;;;;4974357;28;20042;-70
2022/09/20 13:40:35;;;;;;;1.95;1.17;;;15.20;96.00;;;;;;4981145;28;20030;-70
2022/09/20 13:43:04;;;;;;;2.53;1.10;;;15.30;95.90;;;;;;4991714;28;20184;-69
2022/09/20 13:45:31;;;;;;;4.15;1.20;;;15.50;96.00;;;;;;4990021;28;20038;-69
2022/09/20 13:48:00;;;;;;;2.10;1.20;;;15.60;95.90;;;;;;4988860;28;20058;-70
2022/09/20 13:50:25;;;;;;;2.55;1.38;;;15.80;96.00;;;;;;4989271;28;20029;-69
2022/09/20 13:52:57;;;;;;;1.67;1.02;;;15.90;95.90;;;;;;4990158;28;20390;-70
2022/09/20 13:55:33;;;;;;;2.25;1.40;;;16.10;95.80;;;;;;4990558;28;20092;-69
2022/09/20 13:58:02;;;;;;;1.55;1.00;;;16.30;96.00;;;;;;4989039;28;20410;-69
2022/09/20 14:00:30;;;;;;;2.10;1.00;;;16.40;95.30;;;;;;4990396;28;20038;-69